x

West Santa Barbara 38 Nm West Of Santa Barbara, Ca (46054) Wave Buoy

12:50 - Mon 4th May 2015 All times are PDT. -7 hours from GMT.

  • Sig Wave height 5.6ft
  • Swell Direction
  • Peak Period 19s
  • Average Period 9s
  • Wind
    11mph, 13mph gusts
  • Sea Temp 56°f
  • Luft Temp 56°f
  • Sea Pressure 1015.4mb
  • West Santa Barbara  38 Nm West Of Santa Barbara, Ca
  • West Santa Barbara  38 Nm West Of Santa Barbara, Ca

More Historic Weather Station data

Upgrade to MSW Pro to gain access to the past 30 days of data for over 8000 Wavebouys and Weather Stations around the globe.

Join Pro

Comparision Forecast

View Surf forecast
   
Mo 05/04 12:50 5.5ft 19s 9s 11 13 mph 1015.4mb 56f 56f
11:50 6ft 19s 9s 11 13 mph 1015.4mb 56f 56f
10:50 6ft 19s 9s 11 13 mph 1015.2mb 56f 56f
9:50 5.5ft 19s 9s 13 16 mph 1014.7mb 56f 56f
8:50 6.5ft 19s 9s 11 16 mph 1014.4mb 56f 56f
7:50 6ft 21s 9s 11 13 mph 1014.2mb 56f 56f
6:50 6.5ft 19s 8s 9 13 mph 1013.9mb 56f 56f
5:50 5.5ft 21s 8s 11 13 mph 1013.3mb 56f 56f
4:50 6.5ft 19s 9s 13 16 mph 1012.9mb 57f 56f
3:50 6ft 21s 8s 13 16 mph 1012.7mb 57f 56f
2:50 6.5ft 21s 8s 16 18 mph 1012.7mb 56f 56f
1:50 6.5ft 21s 8s 16 20 mph 1012.8mb 56f 56f
12:50 6ft 21s 8s 18 20 mph 1012.7mb 56f 56f
So 05/03 11:50 7ft 21s 8s 18 20 mph 1012.5mb 56f 56f
10:50 6ft 11s 7s 18 22 mph 1012.6mb 56f 57f
9:50 6.5ft 21s 8s 18 20 mph 1012.3mb 56f 56f
8:50 5.5ft 21s 8s 16 20 mph 1011.8mb 56f 56f
7:50 6ft 21s 9s 16 18 mph 1011.4mb 56f 56f
6:50 6ft 11s 8s 16 18 mph 1011.4mb 56f 57f
5:50 6.5ft 21s 10s 13 16 mph 1012.1mb 57f 57f
4:50 7ft 21s 9s 9 11 mph 1012.8mb 57f 57f
3:50 7ft 21s 10s 9
mph
1013.2mb 57f 57f
2:50 6ft 24s 9s 4 7 mph 1013.8mb 57f 57f
1:50 6ft 10s 9s 7 9 mph 1014.2mb 57f 56f
12:50 5.5ft 21s 9s 7
mph
1014.7mb 56f 56f
11:50 6ft 11s 9s 4 7 mph 1014.8mb 56f 56f
10:50 6ft 24s 9s 7
mph
1014.5mb 56f 56f
9:50 5.5ft 17s 9s 4 7 mph 1014.1mb 56f 55f
8:50 5.5ft 24s 9s 4 7 mph 1013.5mb 56f 55f
7:50 5ft 10s 8s 9 11 mph 1013mb 56f 55f
6:50 6ft 24s 8s 9 11 mph 1012.3mb 56f 55f
5:50 5ft 17s 7s 11 13 mph 1011.9mb 56f 55f
4:50 5ft 10s 6s 11 13 mph 1011.6mb 56f 55f
3:50 5ft 10s 6s 13 18 mph 1011mb 56f 55f
2:50 5ft 9s 6s 16 20 mph 1010.9mb 56f 55f
1:50 5ft 10s 6s 18 20 mph 1011.2mb 57f 55f
12:50 5.5ft 10s 7s 16 20 mph 1011.5mb 57f 56f
Sa 05/02 11:50 6ft 10s 7s 18 20 mph 1011.4mb 57f 56f
10:50 5ft 10s 7s 18 20 mph 1011.5mb 57f 56f
9:50 5ft 10s 7s 18 20 mph 1011.5mb 57f 56f
8:50 5ft 10s 7s 16 18 mph 1011.2mb 57f 57f
7:50 5ft 10s 7s 16 20 mph 1010.9mb 57f 57f
6:50 5ft 10s 7s 16 18 mph 1011.1mb 58f 57f
5:50 4.5ft 11s 7s 16 18 mph 1011.4mb 58f 57f
4:50 4.5ft 10s 7s 13 16 mph 1011.5mb 58f 57f
3:50 4.5ft 11s 7s 13 16 mph 1011.9mb 57f 57f
2:50 5ft 10s 8s 13 16 mph 1012.2mb 57f 57f
1:50 5ft 10s 7s 13 16 mph 1012.7mb 57f 56f
12:50 5.5ft 10s 8s 13 16 mph 1013mb 57f 56f
11:50 5ft 9s 7s 11 13 mph 1013.2mb 57f 56f
10:50 6ft 10s 8s 11 16 mph 1013mb 56f 55f
9:50 6ft 10s 8s 11 16 mph 1012.5mb 57f 56f
8:50 5ft 11s 7s 13 16 mph 1012mb 57f 55f
7:50 6.5ft 11s 8s 13 16 mph 1011.7mb 57f 55f
6:50 6ft 11s 7s 11 13 mph 1011.1mb 57f 55f
5:50 6.5ft 11s 8s 13 16 mph 1010.8mb 56f 55f
4:50 6.5ft 10s 8s 16 18 mph 1010.8mb 57f 55f
3:50 6ft 10s 7s 13 16 mph 1011.1mb 57f 55f
2:50 6ft 10s 8s 13 16 mph 1011.2mb 57f 55f
1:50 6ft 11s 8s 13 16 mph 1011.8mb 57f 56f
12:50 6.5ft 11s 8s 13 16 mph 1012.4mb 57f 56f
Fr 05/01 11:50 5.5ft 11s 8s 13 16 mph 1012.5mb 57f 57f
10:50 7ft 11s 9s 11 13 mph 1012.6mb 58f 57f
9:50 5.5ft 11s 8s 9 11 mph 1012.5mb 58f 57f
8:50 6ft 11s 8s 11
mph
1012.1mb 59f 58f
7:50 6ft 11s 9s 9 11 mph 1011.9mb 60f 58f
6:50 6ft 11s 8s 7
mph
1011.6mb 61f 59f
5:50 6ft 11s 9s 4 7 mph 1011.9mb 62f 60f
4:50 6ft 11s 9s 4 7 mph 1012.2mb 61f 59f
3:50 5ft 11s 8s 2 4 mph 1012.6mb 61f 58f
2:50 6ft 11s 8s 4 7 mph 1012.8mb 60f 58f
1:50 6ft 11s 9s 4 7 mph 1013mb 59f 57f
12:50 6ft 11s 8s 4 7 mph 1013.1mb 59f 56f
11:50 6.5ft 11s 9s 4 7 mph 1013.3mb 58f 56f
10:50 5.5ft 11s 8s 4 7 mph 1013.3mb 58f 55f
9:50 6ft 10s 8s 2 4 mph 1013mb 57f 55f
8:50 6ft 12s 9s 4 7 mph 1012.7mb 57f 55f
7:50 7ft 12s 9s 4 7 mph 1012.3mb 57f 55f
6:50 7ft 11s 9s 7 9 mph 1011.6mb 58f 55f
5:50 7.5ft 12s 9s 2 7 mph 1011mb 58f 55f
4:50 6.5ft 12s 8s 4 9 mph 1010.9mb 58f 55f
3:50 8ft 12s 9s 4 9 mph 1011.1mb 57f 56f
2:50 7ft 11s 8s 4 9 mph 1011mb 57f 56f
1:50 7.5ft 11s 8s 4 7 mph 1011.3mb 58f 56f
12:50 8ft 11s 8s 4 7 mph 1011.4mb 58f 55f
Do 04/30 11:50 9.5ft 12s 9s 4 9 mph 1011.2mb 58f 55f
10:50 9ft 12s 9s 4 9 mph 1010.8mb 58f 55f
9:50 7.5ft 11s 9s 4 9 mph 1010.6mb 58f 55f